sensor_id;sensor_type;location;lat;lon;timestamp;P1;durP1;ratioP1;P2;durP2;ratioP2
69789;SDS011;57064;52.046;4.800;2022-12-07T00:00:53;12.60;;;5.30;;
69789;SDS011;57064;52.046;4.800;2022-12-07T00:03:20;13.57;;;5.05;;
69789;SDS011;57064;52.046;4.800;2022-12-07T00:05:46;19.67;;;4.43;;
69789;SDS011;57064;52.046;4.800;2022-12-07T00:08:12;11.57;;;3.35;;
69789;SDS011;57064;52.046;4.800;2022-12-07T00:10:38;9.57;;;3.22;;
69789;SDS011;57064;52.046;4.800;2022-12-07T00:13:04;9.88;;;3.30;;
69789;SDS011;57064;52.046;4.800;2022-12-07T00:15:30;11.15;;;3.95;;
69789;SDS011;57064;52.046;4.800;2022-12-07T00:17:58;12.50;;;3.10;;
69789;SDS011;57064;52.046;4.800;2022-12-07T00:20:24;15.70;;;3.67;;
69789;SDS011;57064;52.046;4.800;2022-12-07T00:22:50;11.02;;;3.70;;
69789;SDS011;57064;52.046;4.800;2022-12-07T00:25:16;11.30;;;3.35;;
69789;SDS011;57064;52.046;4.800;2022-12-07T00:27:42;8.73;;;3.10;;
69789;SDS011;57064;52.046;4.800;2022-12-07T00:30:08;9.40;;;2.92;;
69789;SDS011;57064;52.046;4.800;2022-12-07T00:32:34;9.60;;;2.88;;
69789;SDS011;57064;52.046;4.800;2022-12-07T00:35:00;8.60;;;2.60;;
69789;SDS011;57064;52.046;4.800;2022-12-07T00:37:26;10.95;;;3.00;;
69789;SDS011;57064;52.046;4.800;2022-12-07T00:39:52;10.68;;;2.75;;
69789;SDS011;57064;52.046;4.800;2022-12-07T00:42:18;8.32;;;2.13;;
69789;SDS011;57064;52.046;4.800;2022-12-07T00:44:44;12.63;;;2.83;;
69789;SDS011;57064;52.046;4.800;2022-12-07T00:47:10;6.93;;;2.50;;
69789;SDS011;57064;52.046;4.800;2022-12-07T00:49:36;8.02;;;2.20;;
69789;SDS011;57064;52.046;4.800;2022-12-07T00:52:02;14.02;;;2.80;;
69789;SDS011;57064;52.046;4.800;2022-12-07T00:54:29;8.27;;;3.25;;
69789;SDS011;57064;52.046;4.800;2022-12-07T00:56:55;11.73;;;2.88;;
69789;SDS011;57064;52.046;4.800;2022-12-07T00:59:21;7.30;;;1.83;;
69789;SDS011;57064;52.046;4.800;2022-12-07T01:01:47;14.07;;;2.42;;
69789;SDS011;57064;52.046;4.800;2022-12-07T01:04:13;7.43;;;2.50;;
69789;SDS011;57064;52.046;4.800;2022-12-07T01:06:39;10.50;;;2.60;;
69789;SDS011;57064;52.046;4.800;2022-12-07T01:09:05;14.02;;;2.65;;
69789;SDS011;57064;52.046;4.800;2022-12-07T01:11:31;14.25;;;2.67;;
69789;SDS011;57064;52.046;4.800;2022-12-07T01:13:57;11.82;;;2.22;;
69789;SDS011;57064;52.046;4.800;2022-12-07T01:16:25;10.00;;;2.47;;
69789;SDS011;57064;52.046;4.800;2022-12-07T01:18:55;8.73;;;2.35;;
69789;SDS011;57064;52.046;4.800;2022-12-07T01:21:23;7.32;;;2.15;;
69789;SDS011;57064;52.046;4.800;2022-12-07T01:23:51;7.60;;;2.22;;
69789;SDS011;57064;52.046;4.800;2022-12-07T01:26:19;13.75;;;2.00;;
69789;SDS011;57064;52.046;4.800;2022-12-07T01:28:47;7.22;;;1.65;;
69789;SDS011;57064;52.046;4.800;2022-12-07T01:31:14;12.98;;;2.40;;
69789;SDS011;57064;52.046;4.800;2022-12-07T01:33:46;12.43;;;2.53;;
69789;SDS011;57064;52.046;4.800;2022-12-07T01:38:41;11.13;;;1.98;;
69789;SDS011;57064;52.046;4.800;2022-12-07T01:41:08;10.93;;;1.85;;
69789;SDS011;57064;52.046;4.800;2022-12-07T01:43:34;7.80;;;1.67;;
69789;SDS011;57064;52.046;4.800;2022-12-07T01:46:01;10.10;;;1.52;;
69789;SDS011;57064;52.046;4.800;2022-12-07T01:48:33;8.05;;;1.90;;
69789;SDS011;57064;52.046;4.800;2022-12-07T01:51:04;10.32;;;1.73;;
69789;SDS011;57064;52.046;4.800;2022-12-07T01:53:34;10.15;;;1.50;;
69789;SDS011;57064;52.046;4.800;2022-12-07T01:56:03;12.20;;;2.17;;
69789;SDS011;57064;52.046;4.800;2022-12-07T01:58:30;8.48;;;2.08;;
69789;SDS011;57064;52.046;4.800;2022-12-07T02:00:56;11.38;;;2.25;;
69789;SDS011;57064;52.046;4.800;2022-12-07T02:03:32;10.50;;;2.60;;
69789;SDS011;57064;52.046;4.800;2022-12-07T02:06:04;6.05;;;1.58;;
69789;SDS011;57064;52.046;4.800;2022-12-07T02:08:32;4.60;;;1.60;;
69789;SDS011;57064;52.046;4.800;2022-12-07T02:10:59;7.55;;;1.30;;
69789;SDS011;57064;52.046;4.800;2022-12-07T02:13:30;9.55;;;1.50;;
69789;SDS011;57064;52.046;4.800;2022-12-07T02:16:09;19.60;;;2.60;;
69789;SDS011;57064;52.046;4.800;2022-12-07T02:24:01;8.25;;;1.45;;
69789;SDS011;57064;52.046;4.800;2022-12-07T02:29:13;11.93;;;1.77;;
69789;SDS011;57064;52.046;4.800;2022-12-07T02:31:46;13.48;;;1.77;;
69789;SDS011;57064;52.046;4.800;2022-12-07T02:34:22;6.97;;;1.50;;
69789;SDS011;57064;52.046;4.800;2022-12-07T02:37:19;10.43;;;1.40;;
69789;SDS011;57064;52.046;4.800;2022-12-07T02:39:55;6.10;;;1.77;;
69789;SDS011;57064;52.046;4.800;2022-12-07T02:42:28;9.95;;;1.52;;
69789;SDS011;57064;52.046;4.800;2022-12-07T02:44:59;4.82;;;1.50;;
69789;SDS011;57064;52.046;4.800;2022-12-07T02:47:26;6.45;;;1.80;;
69789;SDS011;57064;52.046;4.800;2022-12-07T02:49:54;4.80;;;1.20;;
69789;SDS011;57064;52.046;4.800;2022-12-07T02:52:21;9.50;;;1.63;;
69789;SDS011;57064;52.046;4.800;2022-12-07T02:54:47;7.38;;;1.58;;
69789;SDS011;57064;52.046;4.800;2022-12-07T03:08:10;5.55;;;1.73;;
69789;SDS011;57064;52.046;4.800;2022-12-07T03:10:59;7.93;;;1.70;;
69789;SDS011;57064;52.046;4.800;2022-12-07T03:13:48;6.70;;;2.00;;
69789;SDS011;57064;52.046;4.800;2022-12-07T03:21:30;11.25;;;1.23;;
69789;SDS011;57064;52.046;4.800;2022-12-07T03:24:00;6.20;;;0.98;;
69789;SDS011;57064;52.046;4.800;2022-12-07T03:29:01;8.20;;;1.65;;
69789;SDS011;57064;52.046;4.800;2022-12-07T03:31:32;7.95;;;1.33;;
69789;SDS011;57064;52.046;4.800;2022-12-07T03:34:11;5.05;;;1.40;;
69789;SDS011;57064;52.046;4.800;2022-12-07T03:36:54;6.93;;;1.67;;
69789;SDS011;57064;52.046;4.800;2022-12-07T03:42:09;24.30;;;2.95;;
69789;SDS011;57064;52.046;4.800;2022-12-07T03:44:36;12.20;;;2.33;;
69789;SDS011;57064;52.046;4.800;2022-12-07T03:47:13;9.93;;;1.25;;
69789;SDS011;57064;52.046;4.800;2022-12-07T03:57:27;6.05;;;0.95;;
69789;SDS011;57064;52.046;4.800;2022-12-07T03:59:55;10.80;;;1.02;;
69789;SDS011;57064;52.046;4.800;2022-12-07T04:02:23;8.95;;;1.48;;
69789;SDS011;57064;52.046;4.800;2022-12-07T04:04:52;6.82;;;1.13;;
69789;SDS011;57064;52.046;4.800;2022-12-07T04:07:18;5.22;;;1.70;;
69789;SDS011;57064;52.046;4.800;2022-12-07T04:09:44;6.85;;;1.13;;
69789;SDS011;57064;52.046;4.800;2022-12-07T04:12:10;7.65;;;0.65;;
69789;SDS011;57064;52.046;4.800;2022-12-07T04:14:36;7.13;;;1.02;;
69789;SDS011;57064;52.046;4.800;2022-12-07T04:17:02;7.85;;;0.70;;
69789;SDS011;57064;52.046;4.800;2022-12-07T04:19:29;3.03;;;0.80;;
69789;SDS011;57064;52.046;4.800;2022-12-07T04:21:57;8.15;;;0.60;;
69789;SDS011;57064;52.046;4.800;2022-12-07T04:24:25;5.60;;;1.02;;
69789;SDS011;57064;52.046;4.800;2022-12-07T04:26:51;2.97;;;0.70;;
69789;SDS011;57064;52.046;4.800;2022-12-07T04:29:18;3.58;;;0.60;;
69789;SDS011;57064;52.046;4.800;2022-12-07T04:31:44;4.90;;;0.50;;
69789;SDS011;57064;52.046;4.800;2022-12-07T04:34:11;4.68;;;0.80;;
69789;SDS011;57064;52.046;4.800;2022-12-07T04:36:37;4.38;;;0.60;;
69789;SDS011;57064;52.046;4.800;2022-12-07T04:39:05;11.48;;;0.85;;
69789;SDS011;57064;52.046;4.800;2022-12-07T04:41:32;5.43;;;0.98;;
69789;SDS011;57064;52.046;4.800;2022-12-07T04:43:59;10.40;;;0.85;;
69789;SDS011;57064;52.046;4.800;2022-12-07T04:46:27;8.15;;;1.13;;
69789;SDS011;57064;52.046;4.800;2022-12-07T04:48:55;4.97;;;1.35;;
69789;SDS011;57064;52.046;4.800;2022-12-07T04:51:23;8.18;;;0.75;;
69789;SDS011;57064;52.046;4.800;2022-12-07T04:53:51;4.68;;;0.85;;
69789;SDS011;57064;52.046;4.800;2022-12-07T04:56:18;10.45;;;0.90;;
69789;SDS011;57064;52.046;4.800;2022-12-07T04:58:45;4.38;;;0.70;;
69789;SDS011;57064;52.046;4.800;2022-12-07T05:01:13;6.93;;;1.00;;
69789;SDS011;57064;52.046;4.800;2022-12-07T05:03:40;6.90;;;1.73;;
69789;SDS011;57064;52.046;4.800;2022-12-07T05:06:06;7.78;;;1.27;;
69789;SDS011;57064;52.046;4.800;2022-12-07T05:08:33;8.57;;;1.85;;
69789;SDS011;57064;52.046;4.800;2022-12-07T05:10:59;7.90;;;2.10;;
69789;SDS011;57064;52.046;4.800;2022-12-07T05:13:26;4.07;;;0.63;;
69789;SDS011;57064;52.046;4.800;2022-12-07T05:15:52;3.72;;;0.60;;
69789;SDS011;57064;52.046;4.800;2022-12-07T05:18:18;4.43;;;0.70;;
69789;SDS011;57064;52.046;4.800;2022-12-07T05:20:44;3.17;;;0.90;;
69789;SDS011;57064;52.046;4.800;2022-12-07T05:23:11;8.43;;;1.08;;
69789;SDS011;57064;52.046;4.800;2022-12-07T05:25:37;6.07;;;0.77;;
69789;SDS011;57064;52.046;4.800;2022-12-07T05:28:03;4.07;;;0.95;;
69789;SDS011;57064;52.046;4.800;2022-12-07T05:30:30;4.10;;;0.82;;
69789;SDS011;57064;52.046;4.800;2022-12-07T05:32:57;4.78;;;0.95;;
69789;SDS011;57064;52.046;4.800;2022-12-07T05:35:23;11.38;;;2.10;;
69789;SDS011;57064;52.046;4.800;2022-12-07T05:37:49;15.40;;;1.80;;
69789;SDS011;57064;52.046;4.800;2022-12-07T05:40:15;4.55;;;1.05;;
69789;SDS011;57064;52.046;4.800;2022-12-07T05:42:43;8.80;;;0.77;;
69789;SDS011;57064;52.046;4.800;2022-12-07T05:45:10;5.43;;;1.88;;
69789;SDS011;57064;52.046;4.800;2022-12-07T05:47:36;3.42;;;0.77;;
69789;SDS011;57064;52.046;4.800;2022-12-07T05:50:03;6.05;;;1.08;;
69789;SDS011;57064;52.046;4.800;2022-12-07T05:52:31;7.10;;;0.98;;
69789;SDS011;57064;52.046;4.800;2022-12-07T05:54:57;3.38;;;0.93;;
69789;SDS011;57064;52.046;4.800;2022-12-07T05:57:23;6.15;;;1.30;;
69789;SDS011;57064;52.046;4.800;2022-12-07T05:59:49;7.78;;;1.10;;
69789;SDS011;57064;52.046;4.800;2022-12-07T06:02:15;8.43;;;0.93;;
69789;SDS011;57064;52.046;4.800;2022-12-07T06:04:43;6.10;;;0.70;;
69789;SDS011;57064;52.046;4.800;2022-12-07T06:07:11;5.10;;;0.90;;
69789;SDS011;57064;52.046;4.800;2022-12-07T06:09:39;6.53;;;1.70;;
69789;SDS011;57064;52.046;4.800;2022-12-07T06:12:06;8.50;;;1.00;;
69789;SDS011;57064;52.046;4.800;2022-12-07T06:14:54;7.90;;;1.17;;
69789;SDS011;57064;52.046;4.800;2022-12-07T06:17:20;8.57;;;0.85;;
69789;SDS011;57064;52.046;4.800;2022-12-07T06:19:46;7.80;;;1.27;;
69789;SDS011;57064;52.046;4.800;2022-12-07T06:22:12;6.78;;;0.90;;
69789;SDS011;57064;52.046;4.800;2022-12-07T06:24:38;6.05;;;1.23;;
69789;SDS011;57064;52.046;4.800;2022-12-07T06:27:05;4.95;;;1.17;;
69789;SDS011;57064;52.046;4.800;2022-12-07T06:29:31;7.47;;;0.90;;
69789;SDS011;57064;52.046;4.800;2022-12-07T06:31:58;7.38;;;1.20;;
69789;SDS011;57064;52.046;4.800;2022-12-07T14:10:41;1.35;;;0.57;;
69789;SDS011;57064;52.046;4.800;2022-12-07T14:13:58;2.70;;;0.60;;
69789;SDS011;57064;52.046;4.800;2022-12-07T14:16:29;7.50;;;0.70;;
69789;SDS011;57064;52.046;4.800;2022-12-07T14:18:59;1.23;;;0.47;;
69789;SDS011;57064;52.046;4.800;2022-12-07T14:21:28;3.63;;;0.80;;
69789;SDS011;57064;52.046;4.800;2022-12-07T14:24:06;5.40;;;0.88;;
69789;SDS011;57064;52.046;4.800;2022-12-07T14:26:35;1.70;;;0.95;;
69789;SDS011;57064;52.046;4.800;2022-12-07T14:31:55;1.55;;;0.60;;
69789;SDS011;57064;52.046;4.800;2022-12-07T14:34:36;6.95;;;1.75;;
69789;SDS011;57064;52.046;4.800;2022-12-07T14:37:02;3.38;;;0.82;;
69789;SDS011;57064;52.046;4.800;2022-12-07T14:39:29;5.00;;;0.90;;
69789;SDS011;57064;52.046;4.800;2022-12-07T14:41:56;5.82;;;2.38;;
69789;SDS011;57064;52.046;4.800;2022-12-07T14:44:22;4.53;;;2.97;;
69789;SDS011;57064;52.046;4.800;2022-12-07T14:46:49;7.40;;;2.42;;
69789;SDS011;57064;52.046;4.800;2022-12-07T14:49:16;3.33;;;1.42;;
69789;SDS011;57064;52.046;4.800;2022-12-07T14:51:43;4.78;;;1.70;;
69789;SDS011;57064;52.046;4.800;2022-12-07T14:54:14;4.57;;;2.00;;
69789;SDS011;57064;52.046;4.800;2022-12-07T14:56:45;5.78;;;1.20;;
69789;SDS011;57064;52.046;4.800;2022-12-07T14:59:15;2.63;;;1.10;;
69789;SDS011;57064;52.046;4.800;2022-12-07T15:01:41;2.13;;;0.75;;
69789;SDS011;57064;52.046;4.800;2022-12-07T15:04:07;3.60;;;1.67;;
69789;SDS011;57064;52.046;4.800;2022-12-07T15:06:34;2.03;;;0.60;;
69789;SDS011;57064;52.046;4.800;2022-12-07T15:09:00;3.08;;;0.55;;
69789;SDS011;57064;52.046;4.800;2022-12-07T15:11:27;6.68;;;0.80;;
69789;SDS011;57064;52.046;4.800;2022-12-07T15:13:53;2.08;;;0.90;;
69789;SDS011;57064;52.046;4.800;2022-12-07T15:16:38;1.73;;;0.80;;
69789;SDS011;57064;52.046;4.800;2022-12-07T15:19:06;5.45;;;1.33;;
69789;SDS011;57064;52.046;4.800;2022-12-07T15:21:36;3.03;;;1.00;;
69789;SDS011;57064;52.046;4.800;2022-12-07T15:24:02;3.42;;;1.08;;
69789;SDS011;57064;52.046;4.800;2022-12-07T15:26:29;4.22;;;0.98;;
69789;SDS011;57064;52.046;4.800;2022-12-07T15:28:55;4.45;;;1.40;;
69789;SDS011;57064;52.046;4.800;2022-12-07T15:31:21;3.78;;;1.63;;
69789;SDS011;57064;52.046;4.800;2022-12-07T15:33:47;5.70;;;1.75;;
69789;SDS011;57064;52.046;4.800;2022-12-07T15:36:18;4.18;;;0.95;;
69789;SDS011;57064;52.046;4.800;2022-12-07T15:38:46;2.97;;;1.58;;
69789;SDS011;57064;52.046;4.800;2022-12-07T15:41:12;3.90;;;1.25;;
69789;SDS011;57064;52.046;4.800;2022-12-07T15:43:38;5.40;;;1.00;;
69789;SDS011;57064;52.046;4.800;2022-12-07T15:46:23;5.18;;;1.58;;
69789;SDS011;57064;52.046;4.800;2022-12-07T15:48:58;3.35;;;1.15;;
69789;SDS011;57064;52.046;4.800;2022-12-07T15:51:25;6.50;;;0.90;;
69789;SDS011;57064;52.046;4.800;2022-12-07T15:53:51;4.68;;;1.65;;
69789;SDS011;57064;52.046;4.800;2022-12-07T15:56:18;5.03;;;1.40;;
69789;SDS011;57064;52.046;4.800;2022-12-07T15:58:44;2.67;;;1.20;;
69789;SDS011;57064;52.046;4.800;2022-12-07T16:01:14;4.50;;;1.40;;
69789;SDS011;57064;52.046;4.800;2022-12-07T16:03:43;16.05;;;6.85;;
69789;SDS011;57064;52.046;4.800;2022-12-07T16:06:09;5.05;;;3.22;;
69789;SDS011;57064;52.046;4.800;2022-12-07T16:08:36;11.02;;;3.75;;
69789;SDS011;57064;52.046;4.800;2022-12-07T16:11:07;16.38;;;4.25;;
69789;SDS011;57064;52.046;4.800;2022-12-07T16:13:33;25.50;;;7.03;;
69789;SDS011;57064;52.046;4.800;2022-12-07T16:16:05;14.35;;;6.05;;
69789;SDS011;57064;52.046;4.800;2022-12-07T16:18:33;16.73;;;8.13;;
69789;SDS011;57064;52.046;4.800;2022-12-07T16:20:59;30.35;;;13.27;;
69789;SDS011;57064;52.046;4.800;2022-12-07T16:23:26;23.35;;;13.23;;
69789;SDS011;57064;52.046;4.800;2022-12-07T16:25:52;16.17;;;11.20;;
69789;SDS011;57064;52.046;4.800;2022-12-07T16:28:19;17.13;;;10.88;;
69789;SDS011;57064;52.046;4.800;2022-12-07T16:30:45;15.82;;;11.25;;
69789;SDS011;57064;52.046;4.800;2022-12-07T16:33:11;26.38;;;14.38;;
69789;SDS011;57064;52.046;4.800;2022-12-07T16:35:38;28.92;;;13.48;;
69789;SDS011;57064;52.046;4.800;2022-12-07T16:38:06;21.85;;;11.43;;
69789;SDS011;57064;52.046;4.800;2022-12-07T16:40:32;24.52;;;11.10;;
69789;SDS011;57064;52.046;4.800;2022-12-07T16:42:58;16.08;;;8.80;;
69789;SDS011;57064;52.046;4.800;2022-12-07T16:45:24;14.57;;;8.27;;
69789;SDS011;57064;52.046;4.800;2022-12-07T16:47:50;13.95;;;7.93;;
69789;SDS011;57064;52.046;4.800;2022-12-07T16:50:16;15.15;;;6.80;;
69789;SDS011;57064;52.046;4.800;2022-12-07T16:52:42;14.75;;;6.68;;
69789;SDS011;57064;52.046;4.800;2022-12-07T16:55:08;11.95;;;6.20;;
69789;SDS011;57064;52.046;4.800;2022-12-07T16:57:34;13.70;;;6.65;;
69789;SDS011;57064;52.046;4.800;2022-12-07T17:00:00;10.07;;;5.47;;
69789;SDS011;57064;52.046;4.800;2022-12-07T17:02:28;13.63;;;6.20;;
69789;SDS011;57064;52.046;4.800;2022-12-07T17:04:54;15.68;;;6.20;;
69789;SDS011;57064;52.046;4.800;2022-12-07T17:07:20;9.93;;;6.90;;
69789;SDS011;57064;52.046;4.800;2022-12-07T17:09:46;12.18;;;6.53;;
69789;SDS011;57064;52.046;4.800;2022-12-07T17:12:12;14.60;;;7.22;;
69789;SDS011;57064;52.046;4.800;2022-12-07T17:14:38;11.65;;;6.32;;
69789;SDS011;57064;52.046;4.800;2022-12-07T17:17:23;13.25;;;6.25;;
69789;SDS011;57064;52.046;4.800;2022-12-07T17:19:49;12.07;;;6.00;;
69789;SDS011;57064;52.046;4.800;2022-12-07T17:22:15;9.90;;;5.97;;
69789;SDS011;57064;52.046;4.800;2022-12-07T17:24:41;12.75;;;5.70;;
69789;SDS011;57064;52.046;4.800;2022-12-07T17:27:07;9.00;;;5.63;;
69789;SDS011;57064;52.046;4.800;2022-12-07T17:29:33;12.02;;;4.88;;
69789;SDS011;57064;52.046;4.800;2022-12-07T17:31:59;12.23;;;5.22;;
69789;SDS011;57064;52.046;4.800;2022-12-07T17:34:26;16.33;;;6.35;;
69789;SDS011;57064;52.046;4.800;2022-12-07T17:36:52;8.95;;;4.68;;
69789;SDS011;57064;52.046;4.800;2022-12-07T17:39:20;15.10;;;3.92;;
69789;SDS011;57064;52.046;4.800;2022-12-07T17:41:46;6.47;;;3.55;;
69789;SDS011;57064;52.046;4.800;2022-12-07T17:44:31;11.98;;;3.88;;
69789;SDS011;57064;52.046;4.800;2022-12-07T17:46:57;7.20;;;3.55;;
69789;SDS011;57064;52.046;4.800;2022-12-07T17:49:24;10.77;;;3.50;;
69789;SDS011;57064;52.046;4.800;2022-12-07T17:51:50;9.30;;;2.85;;
69789;SDS011;57064;52.046;4.800;2022-12-07T17:54:55;7.82;;;2.78;;
69789;SDS011;57064;52.046;4.800;2022-12-07T17:57:21;4.32;;;1.98;;
69789;SDS011;57064;52.046;4.800;2022-12-07T17:59:47;5.55;;;2.20;;
69789;SDS011;57064;52.046;4.800;2022-12-07T18:02:15;8.82;;;2.97;;
69789;SDS011;57064;52.046;4.800;2022-12-07T18:04:41;6.03;;;2.28;;
69789;SDS011;57064;52.046;4.800;2022-12-07T18:07:07;4.38;;;2.25;;
69789;SDS011;57064;52.046;4.800;2022-12-07T18:09:33;9.75;;;1.83;;
69789;SDS011;57064;52.046;4.800;2022-12-07T18:12:00;11.20;;;1.60;;
69789;SDS011;57064;52.046;4.800;2022-12-07T18:14:26;4.97;;;1.30;;
69789;SDS011;57064;52.046;4.800;2022-12-07T18:16:52;4.20;;;1.35;;
69789;SDS011;57064;52.046;4.800;2022-12-07T18:19:19;6.63;;;1.10;;
69789;SDS011;57064;52.046;4.800;2022-12-07T18:21:45;5.40;;;1.63;;
69789;SDS011;57064;52.046;4.800;2022-12-07T18:24:12;2.63;;;1.15;;
69789;SDS011;57064;52.046;4.800;2022-12-07T18:26:40;3.65;;;0.98;;
69789;SDS011;57064;52.046;4.800;2022-12-07T18:29:07;10.15;;;2.75;;
69789;SDS011;57064;52.046;4.800;2022-12-07T18:31:37;10.93;;;1.80;;
69789;SDS011;57064;52.046;4.800;2022-12-07T18:34:04;5.07;;;1.67;;
69789;SDS011;57064;52.046;4.800;2022-12-07T18:39:03;5.75;;;1.60;;
69789;SDS011;57064;52.046;4.800;2022-12-07T18:41:29;4.65;;;1.10;;
69789;SDS011;57064;52.046;4.800;2022-12-07T18:43:55;5.55;;;1.35;;
69789;SDS011;57064;52.046;4.800;2022-12-07T18:46:22;7.38;;;1.13;;
69789;SDS011;57064;52.046;4.800;2022-12-07T18:48:48;14.98;;;2.00;;
69789;SDS011;57064;52.046;4.800;2022-12-07T18:51:15;3.03;;;1.38;;
69789;SDS011;57064;52.046;4.800;2022-12-07T18:53:43;3.55;;;1.00;;
69789;SDS011;57064;52.046;4.800;2022-12-07T18:56:13;5.15;;;1.00;;
69789;SDS011;57064;52.046;4.800;2022-12-07T18:58:41;7.60;;;0.80;;
69789;SDS011;57064;52.046;4.800;2022-12-07T19:01:27;6.07;;;1.08;;
69789;SDS011;57064;52.046;4.800;2022-12-07T19:03:54;5.45;;;0.70;;
69789;SDS011;57064;52.046;4.800;2022-12-07T19:06:21;2.35;;;0.65;;
69789;SDS011;57064;52.046;4.800;2022-12-07T19:08:47;3.20;;;0.85;;
69789;SDS011;57064;52.046;4.800;2022-12-07T19:11:17;4.07;;;0.60;;
69789;SDS011;57064;52.046;4.800;2022-12-07T19:14:07;4.70;;;1.00;;
69789;SDS011;57064;52.046;4.800;2022-12-07T19:16:33;4.63;;;0.60;;
69789;SDS011;57064;52.046;4.800;2022-12-07T19:19:00;5.93;;;0.90;;
69789;SDS011;57064;52.046;4.800;2022-12-07T19:21:26;7.13;;;2.05;;
69789;SDS011;57064;52.046;4.800;2022-12-07T19:23:52;5.00;;;1.23;;
69789;SDS011;57064;52.046;4.800;2022-12-07T19:26:19;9.57;;;1.88;;
69789;SDS011;57064;52.046;4.800;2022-12-07T19:28:47;4.88;;;1.52;;
69789;SDS011;57064;52.046;4.800;2022-12-07T19:31:13;6.70;;;1.75;;
69789;SDS011;57064;52.046;4.800;2022-12-07T19:33:39;5.35;;;1.83;;
69789;SDS011;57064;52.046;4.800;2022-12-07T19:36:05;4.68;;;1.58;;
69789;SDS011;57064;52.046;4.800;2022-12-07T19:38:32;3.03;;;1.67;;
69789;SDS011;57064;52.046;4.800;2022-12-07T19:41:05;8.00;;;2.83;;
69789;SDS011;57064;52.046;4.800;2022-12-07T19:43:33;7.32;;;3.05;;
69789;SDS011;57064;52.046;4.800;2022-12-07T19:46:03;10.80;;;4.07;;
69789;SDS011;57064;52.046;4.800;2022-12-07T19:48:30;11.82;;;4.30;;
69789;SDS011;57064;52.046;4.800;2022-12-07T19:51:00;11.82;;;3.85;;
69789;SDS011;57064;52.046;4.800;2022-12-07T19:53:30;8.43;;;3.00;;
69789;SDS011;57064;52.046;4.800;2022-12-07T19:55:57;6.25;;;2.40;;
69789;SDS011;57064;52.046;4.800;2022-12-07T19:58:23;10.57;;;2.58;;
69789;SDS011;57064;52.046;4.800;2022-12-07T20:00:49;11.50;;;3.60;;
69789;SDS011;57064;52.046;4.800;2022-12-07T20:03:15;8.25;;;3.17;;
69789;SDS011;57064;52.046;4.800;2022-12-07T20:05:41;8.90;;;4.32;;
69789;SDS011;57064;52.046;4.800;2022-12-07T20:08:07;8.38;;;4.07;;
69789;SDS011;57064;52.046;4.800;2022-12-07T20:10:33;8.85;;;4.13;;
69789;SDS011;57064;52.046;4.800;2022-12-07T20:13:03;7.10;;;3.40;;
69789;SDS011;57064;52.046;4.800;2022-12-07T20:15:48;7.88;;;3.53;;
69789;SDS011;57064;52.046;4.800;2022-12-07T20:18:14;8.98;;;4.35;;
69789;SDS011;57064;52.046;4.800;2022-12-07T20:20:40;7.25;;;3.78;;
69789;SDS011;57064;52.046;4.800;2022-12-07T20:23:08;6.22;;;3.30;;
69789;SDS011;57064;52.046;4.800;2022-12-07T20:25:34;5.88;;;3.20;;
69789;SDS011;57064;52.046;4.800;2022-12-07T20:28:01;10.45;;;4.30;;
69789;SDS011;57064;52.046;4.800;2022-12-07T20:30:27;12.73;;;3.70;;
69789;SDS011;57064;52.046;4.800;2022-12-07T20:32:53;12.50;;;5.57;;
69789;SDS011;57064;52.046;4.800;2022-12-07T20:35:19;17.67;;;6.22;;
69789;SDS011;57064;52.046;4.800;2022-12-07T20:37:45;28.83;;;8.70;;
69789;SDS011;57064;52.046;4.800;2022-12-07T20:40:11;26.88;;;9.65;;
69789;SDS011;57064;52.046;4.800;2022-12-07T20:42:37;19.20;;;9.13;;
69789;SDS011;57064;52.046;4.800;2022-12-07T20:45:04;17.67;;;8.18;;
69789;SDS011;57064;52.046;4.800;2022-12-07T20:47:33;12.73;;;6.03;;
69789;SDS011;57064;52.046;4.800;2022-12-07T20:50:00;10.43;;;6.15;;
69789;SDS011;57064;52.046;4.800;2022-12-07T20:52:28;8.30;;;4.50;;
69789;SDS011;57064;52.046;4.800;2022-12-07T20:54:55;8.02;;;4.53;;
69789;SDS011;57064;52.046;4.800;2022-12-07T20:57:21;10.77;;;4.28;;
69789;SDS011;57064;52.046;4.800;2022-12-07T20:59:47;6.45;;;3.72;;
69789;SDS011;57064;52.046;4.800;2022-12-07T21:02:13;8.10;;;2.88;;
69789;SDS011;57064;52.046;4.800;2022-12-07T21:04:39;2.83;;;1.70;;
69789;SDS011;57064;52.046;4.800;2022-12-07T21:07:05;4.40;;;2.28;;
69789;SDS011;57064;52.046;4.800;2022-12-07T21:09:32;5.90;;;2.40;;
69789;SDS011;57064;52.046;4.800;2022-12-07T21:11:58;3.03;;;1.70;;
69789;SDS011;57064;52.046;4.800;2022-12-07T21:14:24;4.53;;;2.60;;
69789;SDS011;57064;52.046;4.800;2022-12-07T21:16:50;4.65;;;2.50;;
69789;SDS011;57064;52.046;4.800;2022-12-07T21:19:16;6.28;;;2.75;;
69789;SDS011;57064;52.046;4.800;2022-12-07T21:21:42;7.82;;;3.30;;
69789;SDS011;57064;52.046;4.800;2022-12-07T21:24:09;8.73;;;3.05;;
69789;SDS011;57064;52.046;4.800;2022-12-07T21:26:36;9.77;;;3.25;;
69789;SDS011;57064;52.046;4.800;2022-12-07T21:29:03;5.20;;;2.95;;
69789;SDS011;57064;52.046;4.800;2022-12-07T21:31:31;12.52;;;3.80;;
69789;SDS011;57064;52.046;4.800;2022-12-07T21:33:57;6.25;;;2.50;;
69789;SDS011;57064;52.046;4.800;2022-12-07T21:36:25;8.63;;;3.10;;
69789;SDS011;57064;52.046;4.800;2022-12-07T21:38:51;6.00;;;2.80;;
69789;SDS011;57064;52.046;4.800;2022-12-07T21:43:45;5.05;;;2.65;;
69789;SDS011;57064;52.046;4.800;2022-12-07T21:46:12;4.35;;;1.90;;
69789;SDS011;57064;52.046;4.800;2022-12-07T21:48:38;5.72;;;1.52;;
69789;SDS011;57064;52.046;4.800;2022-12-07T21:51:05;4.45;;;1.50;;
69789;SDS011;57064;52.046;4.800;2022-12-07T21:53:33;3.95;;;1.52;;
69789;SDS011;57064;52.046;4.800;2022-12-07T21:56:00;6.55;;;1.73;;
69789;SDS011;57064;52.046;4.800;2022-12-07T21:58:27;8.85;;;2.10;;
69789;SDS011;57064;52.046;4.800;2022-12-07T22:00:53;4.53;;;1.80;;
69789;SDS011;57064;52.046;4.800;2022-12-07T22:03:19;15.15;;;2.42;;
69789;SDS011;57064;52.046;4.800;2022-12-07T22:05:45;6.93;;;1.73;;
69789;SDS011;57064;52.046;4.800;2022-12-07T22:08:11;4.22;;;2.10;;
69789;SDS011;57064;52.046;4.800;2022-12-07T22:10:37;6.95;;;1.80;;
69789;SDS011;57064;52.046;4.800;2022-12-07T22:13:04;4.50;;;2.13;;
69789;SDS011;57064;52.046;4.800;2022-12-07T22:15:30;5.68;;;2.28;;
69789;SDS011;57064;52.046;4.800;2022-12-07T22:17:56;7.32;;;2.63;;
69789;SDS011;57064;52.046;4.800;2022-12-07T22:20:22;6.35;;;2.55;;
69789;SDS011;57064;52.046;4.800;2022-12-07T22:22:48;11.43;;;2.80;;
69789;SDS011;57064;52.046;4.800;2022-12-07T22:25:14;8.30;;;3.10;;
69789;SDS011;57064;52.046;4.800;2022-12-07T22:27:40;5.40;;;2.55;;
69789;SDS011;57064;52.046;4.800;2022-12-07T22:30:08;8.32;;;2.97;;
69789;SDS011;57064;52.046;4.800;2022-12-07T22:32:36;4.97;;;2.63;;
69789;SDS011;57064;52.046;4.800;2022-12-07T22:35:02;9.32;;;2.70;;
69789;SDS011;57064;52.046;4.800;2022-12-07T22:37:30;6.85;;;2.20;;
69789;SDS011;57064;52.046;4.800;2022-12-07T22:39:57;5.47;;;2.20;;
69789;SDS011;57064;52.046;4.800;2022-12-07T22:42:23;4.40;;;2.22;;
69789;SDS011;57064;52.046;4.800;2022-12-07T22:44:49;2.95;;;1.80;;
69789;SDS011;57064;52.046;4.800;2022-12-07T22:47:15;4.43;;;1.98;;
69789;SDS011;57064;52.046;4.800;2022-12-07T22:49:41;3.00;;;1.30;;
69789;SDS011;57064;52.046;4.800;2022-12-07T22:52:08;5.07;;;1.15;;
69789;SDS011;57064;52.046;4.800;2022-12-07T22:54:34;3.67;;;1.45;;
69789;SDS011;57064;52.046;4.800;2022-12-07T22:57:01;2.63;;;1.08;;
69789;SDS011;57064;52.046;4.800;2022-12-07T22:59:27;1.90;;;1.27;;
69789;SDS011;57064;52.046;4.800;2022-12-07T23:01:53;5.68;;;1.45;;
69789;SDS011;57064;52.046;4.800;2022-12-07T23:04:19;4.70;;;1.55;;
69789;SDS011;57064;52.046;4.800;2022-12-07T23:06:45;3.17;;;1.23;;
69789;SDS011;57064;52.046;4.800;2022-12-07T23:09:11;4.35;;;1.70;;
69789;SDS011;57064;52.046;4.800;2022-12-07T23:11:39;5.53;;;1.60;;